Terminal Aerodrome Forecast
Issued by NWS

Current Version | Previous Version | Text Only | Print | Product List | Glossary On
Versions: 1 2 3 4 5 6 7 8 9 10 11 12 13 14
577
FTUS43 KAPX 242321
TAFMBL
TAF
KMBL 242321Z 2500/2524 04006KT P6SM -RA OVC009
     FM250800 07006KT P6SM VCSH OVC010
     FM251100 07007KT P6SM OVC025
     FM251700 09011G21KT P6SM BKN035
     FM252100 09011G24KT 5SM -RA BR OVC015
     FM252300 10010G20KT 5SM -RA BR OVC008=

USA.gov is the U.S. government's official web portal to all federal, state and local government web resources and services.